createdAt,value
2022-08-30T00:01:06.798Z,0.20
2022-08-30T00:03:43.854Z,0.17
2022-08-30T00:06:16.373Z,0.28
2022-08-30T00:08:48.003Z,0.20
2022-08-30T00:11:23.150Z,0.10
2022-08-30T00:13:55.183Z,0.20
2022-08-30T00:16:27.352Z,0.30
2022-08-30T00:18:58.706Z,0.20
2022-08-30T00:21:28.955Z,0.17
2022-08-30T00:23:59.249Z,0.20
2022-08-30T00:26:29.511Z,0.45
2022-08-30T00:29:00.541Z,0.32
2022-08-30T00:31:30.770Z,0.20
2022-08-30T00:34:02.099Z,0.32
2022-08-30T00:36:32.309Z,0.40
2022-08-30T00:39:02.981Z,0.15
2022-08-30T00:41:33.638Z,0.20
2022-08-30T00:44:04.023Z,0.20
2022-08-30T00:46:34.325Z,0.22
2022-08-30T00:49:09.402Z,0.10
2022-08-30T00:51:41.150Z,0.35
2022-08-30T00:54:12.038Z,0.20
2022-08-30T00:56:43.017Z,0.10
2022-08-30T00:59:14.478Z,0.28
2022-08-30T01:01:45.063Z,0.10
2022-08-30T01:04:16.798Z,0.30
2022-08-30T01:06:47.726Z,0.20
2022-08-30T01:09:18.531Z,0.22
2022-08-30T01:12:08.267Z,0.20
2022-08-30T01:14:57.504Z,0.10
2022-08-30T01:17:40.293Z,0.20
2022-08-30T01:20:16.044Z,0.10
2022-08-30T01:22:52.590Z,0.10
2022-08-30T01:25:27.316Z,0.20
2022-08-30T01:28:06.045Z,0.20
2022-08-30T01:30:37.210Z,0.65
2022-08-30T01:33:09.514Z,0.28
2022-08-30T01:36:03.243Z,0.10
2022-08-30T01:38:41.852Z,0.17
2022-08-30T01:41:17.164Z,0.28
2022-08-30T01:43:48.092Z,0.82
2022-08-30T01:46:20.848Z,0.10
2022-08-30T01:48:53.890Z,0.30
2022-08-30T01:51:26.675Z,0.40
2022-08-30T01:53:57.995Z,0.17
2022-08-30T01:56:29.800Z,0.40
2022-08-30T01:59:03.083Z,0.20
2022-08-30T02:01:36.507Z,0.20
2022-08-30T02:04:11.066Z,0.30
2022-08-30T02:06:43.379Z,0.88
2022-08-30T02:09:16.266Z,0.30
2022-08-30T02:11:49.613Z,0.20
2022-08-30T02:14:22.819Z,0.20
2022-08-30T02:16:53.835Z,0.30
2022-08-30T02:19:24.192Z,0.30
2022-08-30T02:21:54.714Z,0.10
2022-08-30T02:24:25.282Z,0.75
2022-08-30T02:26:55.930Z,0.35
2022-08-30T02:29:27.721Z,0.30
2022-08-30T02:31:58.061Z,0.45
2022-08-30T02:34:28.791Z,0.30
2022-08-30T02:36:59.586Z,1.23
2022-08-30T02:39:30.321Z,0.20
2022-08-30T02:42:01.015Z,0.20
2022-08-30T02:44:31.298Z,0.20
2022-08-30T02:47:01.523Z,0.10
2022-08-30T02:49:34.096Z,0.22
2022-08-30T02:52:07.333Z,0.25
2022-08-30T02:54:38.099Z,0.10
2022-08-30T02:57:20.105Z,0.10
2022-08-30T02:59:54.877Z,0.20
2022-08-30T03:02:25.425Z,0.32
2022-08-30T03:04:56.505Z,0.20
2022-08-30T03:07:26.699Z,0.20
2022-08-30T03:09:57.104Z,0.20
2022-08-30T03:12:27.426Z,0.17
2022-08-30T03:14:58.193Z,0.20
2022-08-30T03:17:28.912Z,0.35
2022-08-30T03:20:01.996Z,0.20
2022-08-30T03:22:32.767Z,0.22
2022-08-30T03:25:03.484Z,0.43
2022-08-30T03:27:34.428Z,0.10
2022-08-30T03:30:04.806Z,0.57
2022-08-30T03:32:35.655Z,0.20
2022-08-30T03:35:06.099Z,0.20
2022-08-30T03:37:37.357Z,0.30
2022-08-30T03:40:09.212Z,0.00
2022-08-30T03:42:40.965Z,0.15
2022-08-30T03:45:14.580Z,0.10
2022-08-30T03:47:45.411Z,0.40
2022-08-30T03:50:18.116Z,0.15
2022-08-30T03:52:48.393Z,0.17
2022-08-30T03:55:19.381Z,0.13
2022-08-30T03:57:50.236Z,0.10
2022-08-30T04:00:23.048Z,0.10
2022-08-30T04:02:53.312Z,0.50
2022-08-30T04:05:24.666Z,0.20
2022-08-30T04:07:59.684Z,0.20
2022-08-30T04:10:30.108Z,0.10
2022-08-30T04:13:01.092Z,0.22
2022-08-30T04:15:31.446Z,0.28
2022-08-30T04:18:01.687Z,0.22
2022-08-30T04:20:31.939Z,0.10
2022-08-30T04:23:02.258Z,0.20
2022-08-30T04:25:32.879Z,0.30
2022-08-30T04:28:05.815Z,0.30
2022-08-30T04:30:36.420Z,0.32
2022-08-30T04:33:06.703Z,0.13
2022-08-30T04:35:37.345Z,0.10
2022-08-30T04:38:09.977Z,0.20
2022-08-30T04:40:40.589Z,0.20
2022-08-30T04:43:13.378Z,0.10
2022-08-30T04:45:45.935Z,0.35
2022-08-30T04:48:16.505Z,0.10
2022-08-30T04:50:46.866Z,0.10
2022-08-30T04:53:18.339Z,0.10
2022-08-30T04:55:48.856Z,0.45
2022-08-30T04:58:19.795Z,0.13
2022-08-30T05:00:50.098Z,0.20
2022-08-30T05:03:21.099Z,0.20
2022-08-30T05:05:53.329Z,0.25
2022-08-30T05:08:28.117Z,0.20
2022-08-30T05:10:58.387Z,0.43
2022-08-30T05:13:35.764Z,0.20
2022-08-30T05:16:10.046Z,0.10
2022-08-30T05:18:40.689Z,0.30
2022-08-30T05:21:15.630Z,0.20
2022-08-30T05:23:47.138Z,0.30
2022-08-30T05:26:25.042Z,0.32
2022-08-30T05:28:56.534Z,0.20
2022-08-30T05:31:27.137Z,0.43
2022-08-30T05:33:59.178Z,0.10
2022-08-30T05:36:34.448Z,0.20
2022-08-30T05:39:06.361Z,0.08
2022-08-30T05:41:37.146Z,0.20
2022-08-30T05:44:10.330Z,0.10
2022-08-30T05:46:41.282Z,0.15
2022-08-30T05:49:12.193Z,0.05
2022-08-30T05:51:43.720Z,0.10
2022-08-30T05:54:16.493Z,0.10
2022-08-30T05:56:48.172Z,0.20
2022-08-30T05:59:19.759Z,0.10
2022-08-30T06:01:50.532Z,0.10
2022-08-30T06:04:21.120Z,0.10
2022-08-30T06:06:52.047Z,0.10
2022-08-30T06:09:22.663Z,0.10
2022-08-30T06:11:52.952Z,0.15
2022-08-30T06:14:24.080Z,0.10
2022-08-30T06:16:54.472Z,0.10
2022-08-30T06:19:25.347Z,0.00
2022-08-30T06:21:55.617Z,0.10
2022-08-30T06:24:41.133Z,0.15
2022-08-30T06:27:17.065Z,0.10
2022-08-30T06:29:47.715Z,0.10
2022-08-30T06:32:18.232Z,0.10
2022-08-30T06:34:49.472Z,0.10
2022-08-30T06:37:29.344Z,0.43
2022-08-30T06:40:01.948Z,0.10
2022-08-30T06:42:36.173Z,0.08
2022-08-30T06:45:10.685Z,0.10
2022-08-30T06:47:42.311Z,0.25
2022-08-30T06:50:18.818Z,0.10
2022-08-30T06:52:49.706Z,0.10
2022-08-30T06:55:21.819Z,0.10
2022-08-30T06:57:52.624Z,0.05
2022-08-30T07:00:25.317Z,0.10
2022-08-30T07:02:58.071Z,0.20
2022-08-30T07:05:31.073Z,0.10
2022-08-30T07:08:02.983Z,0.20
2022-08-30T07:10:33.554Z,0.10
2022-08-30T07:13:03.709Z,0.17
2022-08-30T07:15:34.016Z,0.13
2022-08-30T07:18:27.018Z,0.10
2022-08-30T07:20:57.725Z,0.13
2022-08-30T07:23:28.064Z,0.10
2022-08-30T07:25:58.979Z,0.15
2022-08-30T07:28:39.413Z,0.10
2022-08-30T07:34:19.813Z,0.10
2022-08-30T07:42:31.115Z,0.20
2022-08-30T07:48:02.452Z,0.28
2022-08-30T07:50:32.779Z,0.17
2022-08-30T07:53:11.810Z,0.20
2022-08-30T07:55:58.654Z,0.20
2022-08-30T07:58:39.809Z,0.30
2022-08-30T08:01:50.177Z,0.20
2022-08-30T08:07:18.648Z,0.50
2022-08-30T08:09:50.892Z,0.52
2022-08-30T08:12:23.022Z,0.30
2022-08-30T08:15:01.392Z,0.40
2022-08-30T08:17:55.324Z,0.28
2022-08-30T08:20:34.038Z,0.22
2022-08-30T08:23:27.367Z,0.10
2022-08-30T08:26:08.777Z,0.47
2022-08-30T08:28:39.123Z,0.10
2022-08-30T08:31:54.086Z,0.35
2022-08-30T08:34:27.668Z,0.70
2022-08-30T08:37:05.340Z,1.17
2022-08-30T08:39:39.219Z,0.80
2022-08-30T08:42:38.064Z,0.38
2022-08-30T08:48:10.554Z,0.40
2022-08-30T08:51:06.375Z,0.30
2022-08-30T08:53:47.203Z,0.30
2022-08-30T08:56:49.226Z,0.45
2022-08-30T08:59:20.906Z,0.20
2022-08-30T09:02:04.735Z,0.17
2022-08-30T09:05:18.678Z,0.20
2022-08-30T09:08:17.535Z,0.10
2022-08-30T09:11:12.828Z,0.22
2022-08-30T09:13:44.091Z,0.30
2022-08-30T09:35:26.759Z,0.20
2022-08-30T09:41:51.586Z,1.23
2022-08-30T09:44:53.242Z,3.50
2022-08-30T09:47:43.711Z,1.58
2022-08-30T09:50:33.930Z,1.15
2022-08-30T09:54:17.530Z,1.02
2022-08-30T10:04:18.862Z,1.70
2022-08-30T10:07:53.570Z,1.40
2022-08-30T10:11:00.586Z,1.00
2022-08-30T10:17:46.939Z,0.25
2022-08-30T10:24:50.896Z,0.30
2022-08-30T10:30:48.737Z,0.20
2022-08-30T10:37:07.582Z,0.10
2022-08-30T10:40:39.234Z,0.20
2022-08-30T10:44:07.626Z,0.75
2022-08-30T10:47:25.682Z,0.10
2022-08-30T10:50:14.410Z,0.20
2022-08-30T10:53:09.266Z,0.10
2022-08-30T11:03:12.108Z,0.15
2022-08-30T11:06:22.475Z,0.28
2022-08-30T11:09:09.168Z,0.10
2022-08-30T11:15:28.775Z,0.13
2022-08-30T11:21:31.064Z,0.30
2022-08-30T11:24:06.600Z,0.15
2022-08-30T11:27:01.209Z,0.20
2022-08-30T11:32:19.021Z,0.30
2022-08-30T11:34:49.597Z,0.28
2022-08-30T11:37:42.154Z,0.20
2022-08-30T11:40:25.240Z,0.20
2022-08-30T11:42:58.838Z,0.30
2022-08-30T11:45:30.325Z,0.30
2022-08-30T11:48:04.683Z,0.22
2022-08-30T11:50:38.622Z,0.10
2022-08-30T11:53:44.690Z,0.15
2022-08-30T11:56:52.312Z,0.10
2022-08-30T11:59:58.313Z,0.20
2022-08-30T12:03:01.790Z,0.10
2022-08-30T12:05:44.560Z,0.17
2022-08-30T12:08:36.320Z,0.25
2022-08-30T12:11:08.604Z,0.10
2022-08-30T12:13:39.589Z,0.10
2022-08-30T12:17:08.216Z,0.65
2022-08-30T12:19:41.307Z,0.25
2022-08-30T12:22:20.040Z,0.20
2022-08-30T12:24:57.854Z,0.20
2022-08-30T12:27:36.173Z,0.30
2022-08-30T12:30:35.451Z,0.20
2022-08-30T12:33:15.709Z,1.10
2022-08-30T12:35:49.610Z,0.80
2022-08-30T12:38:36.337Z,1.13
2022-08-30T12:41:31.340Z,0.95
2022-08-30T12:44:24.738Z,0.85
2022-08-30T12:53:15.762Z,0.20
2022-08-30T12:56:40.635Z,0.22
2022-08-30T12:59:15.440Z,0.20
2022-08-30T13:01:46.407Z,0.20
2022-08-30T13:04:23.448Z,0.20
2022-08-30T13:06:59.186Z,0.20
2022-08-30T13:09:43.085Z,0.20
2022-08-30T13:12:36.046Z,0.15
2022-08-30T13:15:34.607Z,0.20
2022-08-30T13:18:34.316Z,0.20
2022-08-30T13:21:27.669Z,0.10
2022-08-30T13:24:07.050Z,0.20
2022-08-30T13:26:40.034Z,0.10
2022-08-30T13:29:27.815Z,0.10
2022-08-30T13:31:59.140Z,0.20
2022-08-30T13:34:29.926Z,0.20
2022-08-30T13:37:01.586Z,0.20
2022-08-30T13:39:32.383Z,0.20
2022-08-30T13:42:33.711Z,0.25
2022-08-30T13:44:54.332Z,0.10
2022-08-30T13:47:36.974Z,0.20
2022-08-30T13:53:15.541Z,0.20
2022-08-30T13:58:54.583Z,0.20
2022-08-30T14:04:59.754Z,0.30
2022-08-30T14:07:32.946Z,0.30
2022-08-30T14:13:00.821Z,0.43
2022-08-30T14:15:39.363Z,0.30
2022-08-30T14:18:18.096Z,0.22
2022-08-30T14:20:49.419Z,0.38
2022-08-30T14:23:20.240Z,0.50
2022-08-30T14:26:00.432Z,0.60
2022-08-30T14:28:32.065Z,0.55
2022-08-30T14:31:05.221Z,0.40
2022-08-30T14:33:39.816Z,0.50
2022-08-30T14:36:15.790Z,0.60
2022-08-30T14:38:53.000Z,0.47
2022-08-30T14:44:00.436Z,0.30
2022-08-30T14:46:33.653Z,0.30
2022-08-30T14:49:11.347Z,0.50
2022-08-30T14:51:51.068Z,0.40
2022-08-30T14:54:35.092Z,0.30
2022-08-30T14:57:13.529Z,0.30
2022-08-30T14:59:51.144Z,0.50
2022-08-30T15:05:16.362Z,0.30
2022-08-30T15:08:13.997Z,0.30
2022-08-30T15:14:03.088Z,0.45
2022-08-30T15:16:57.744Z,0.30
2022-08-30T15:25:56.332Z,0.30
2022-08-30T15:31:36.560Z,0.40
2022-08-30T15:34:33.219Z,0.30
2022-08-30T15:40:05.345Z,0.40
2022-08-30T15:42:46.846Z,0.28
2022-08-30T15:45:20.339Z,0.25
2022-08-30T15:48:02.565Z,0.38
2022-08-30T15:50:39.863Z,0.40
2022-08-30T15:53:18.549Z,0.98
2022-08-30T15:55:49.698Z,0.40
2022-08-30T15:58:21.547Z,0.30
2022-08-30T16:00:53.550Z,0.32
2022-08-30T16:03:27.711Z,0.17
2022-08-30T16:05:59.068Z,0.30
2022-08-30T16:08:34.301Z,0.32
2022-08-30T16:11:11.788Z,0.30
2022-08-30T16:13:42.353Z,0.30
2022-08-30T16:16:12.983Z,0.25
2022-08-30T16:18:43.456Z,0.38
2022-08-30T16:21:23.279Z,0.20
2022-08-30T16:23:54.092Z,0.30
2022-08-30T16:26:26.520Z,0.30
2022-08-30T16:28:57.764Z,0.25
2022-08-30T16:31:30.669Z,0.40
2022-08-30T16:34:02.382Z,0.20
2022-08-30T16:36:37.619Z,0.40
2022-08-30T16:39:10.048Z,0.25
2022-08-30T16:41:40.884Z,0.30
2022-08-30T16:44:11.943Z,0.28
2022-08-30T16:46:53.784Z,0.90
2022-08-30T16:49:25.817Z,0.68
2022-08-30T16:51:56.251Z,0.55
2022-08-30T16:54:26.961Z,0.30
2022-08-30T16:56:57.503Z,0.63
2022-08-30T16:59:28.341Z,0.80
2022-08-30T17:01:58.741Z,0.60
2022-08-30T17:04:29.948Z,0.50
2022-08-30T17:07:00.288Z,0.73
2022-08-30T17:09:30.659Z,0.60
2022-08-30T17:12:00.939Z,0.80
2022-08-30T17:14:34.207Z,0.70
2022-08-30T17:17:05.193Z,0.50
2022-08-30T17:19:41.044Z,0.55
2022-08-30T17:22:15.771Z,0.40
2022-08-30T17:24:47.964Z,0.47
2022-08-30T17:27:19.219Z,0.43
2022-08-30T17:29:49.490Z,0.40
2022-08-30T17:32:19.864Z,0.38
2022-08-30T17:34:50.672Z,0.40
2022-08-30T17:37:22.489Z,0.50
2022-08-30T17:39:53.691Z,0.60
2022-08-30T17:42:24.861Z,0.65
2022-08-30T17:45:06.731Z,0.75
2022-08-30T17:50:09.169Z,0.70
2022-08-30T17:52:39.539Z,1.00
2022-08-30T17:55:10.892Z,1.08
2022-08-30T17:57:44.243Z,0.95
2022-08-30T18:00:16.139Z,1.50
2022-08-30T18:02:46.568Z,1.50
2022-08-30T18:05:24.470Z,1.40
2022-08-30T18:07:57.439Z,1.60
2022-08-30T18:10:34.802Z,1.75
2022-08-30T18:13:05.762Z,1.85
2022-08-30T18:15:36.665Z,1.40
2022-08-30T18:18:09.119Z,1.33
2022-08-30T18:20:42.004Z,1.48
2022-08-30T18:23:14.244Z,1.50
2022-08-30T18:25:52.821Z,1.30
2022-08-30T18:28:23.073Z,1.40
2022-08-30T18:30:54.521Z,1.30
2022-08-30T18:33:27.124Z,1.25
2022-08-30T18:35:59.942Z,1.27
2022-08-30T18:38:33.232Z,1.35
2022-08-30T18:41:08.453Z,1.40
2022-08-30T18:43:39.912Z,1.00
2022-08-30T18:46:12.837Z,1.60
2022-08-30T18:48:46.636Z,1.25
2022-08-30T18:51:24.783Z,1.60
2022-08-30T18:53:57.532Z,1.50
2022-08-30T18:56:33.133Z,1.90
2022-08-30T18:59:03.976Z,1.40
2022-08-30T19:01:38.450Z,1.80
2022-08-30T19:04:11.458Z,1.48
2022-08-30T19:06:55.240Z,1.52
2022-08-30T19:09:26.605Z,1.48
2022-08-30T19:11:57.830Z,1.70
2022-08-30T19:14:28.794Z,1.48
2022-08-30T19:17:06.594Z,1.23
2022-08-30T19:19:48.233Z,1.65
2022-08-30T19:22:27.506Z,1.30
2022-08-30T19:25:01.115Z,1.15
2022-08-30T19:27:38.292Z,1.40
2022-08-30T19:30:23.125Z,1.92
2022-08-30T19:32:56.662Z,1.17
2022-08-30T19:35:30.155Z,1.60
2022-08-30T19:38:01.913Z,1.33
2022-08-30T19:40:32.380Z,1.05
2022-08-30T19:43:03.645Z,1.40
2022-08-30T19:45:35.632Z,1.48
2022-08-30T19:48:06.601Z,0.90
2022-08-30T19:50:37.292Z,0.98
2022-08-30T19:53:08.498Z,0.98
2022-08-30T19:55:38.894Z,0.80
2022-08-30T19:58:09.717Z,1.00
2022-08-30T20:00:52.954Z,0.90
2022-08-30T20:03:25.078Z,0.68
2022-08-30T20:05:55.805Z,1.15
2022-08-30T20:08:26.627Z,0.80
2022-08-30T20:10:58.463Z,0.82
2022-08-30T20:13:29.714Z,1.00
2022-08-30T20:16:05.083Z,0.60
2022-08-30T20:18:35.353Z,0.80
2022-08-30T20:21:13.538Z,1.33
2022-08-30T20:23:46.142Z,1.35
2022-08-30T20:26:18.145Z,1.20
2022-08-30T20:28:48.418Z,1.27
2022-08-30T20:31:19.542Z,2.15
2022-08-30T20:33:50.559Z,2.13
2022-08-30T20:36:21.068Z,1.48
2022-08-30T20:38:51.870Z,1.05
2022-08-30T20:41:22.724Z,1.63
2022-08-30T20:43:53.634Z,1.35
2022-08-30T20:46:24.537Z,1.30
2022-08-30T20:48:55.094Z,1.30
2022-08-30T20:51:25.448Z,1.38
2022-08-30T20:53:57.996Z,1.30
2022-08-30T20:56:31.097Z,1.60
2022-08-30T20:59:04.083Z,1.63
2022-08-30T21:01:38.312Z,1.80
2022-08-30T21:04:10.997Z,2.30
2022-08-30T21:06:42.563Z,1.45
2022-08-30T21:09:13.004Z,1.70
2022-08-30T21:11:44.608Z,1.50
2022-08-30T21:14:15.570Z,1.40
2022-08-30T21:16:46.182Z,1.70
2022-08-30T21:19:17.028Z,1.63
2022-08-30T21:21:47.285Z,1.52
2022-08-30T21:24:20.894Z,1.30
2022-08-30T21:26:54.827Z,2.17
2022-08-30T21:29:25.482Z,1.55
2022-08-30T21:31:56.801Z,2.47
2022-08-30T21:34:28.077Z,1.73
2022-08-30T21:36:59.721Z,2.15
2022-08-30T21:39:31.420Z,2.03
2022-08-30T21:42:01.602Z,2.10
2022-08-30T21:44:32.344Z,1.90
2022-08-30T21:47:02.584Z,2.20
2022-08-30T21:49:34.134Z,2.63
2022-08-30T21:52:04.473Z,1.80
2022-08-30T21:54:35.459Z,1.60
2022-08-30T21:57:06.821Z,2.22
2022-08-30T21:59:37.466Z,2.58
2022-08-30T22:02:08.264Z,2.47
2022-08-30T22:04:38.738Z,2.20
2022-08-30T22:07:10.542Z,2.65
2022-08-30T22:09:41.333Z,2.20
2022-08-30T22:12:15.739Z,2.30
2022-08-30T22:14:46.364Z,2.45
2022-08-30T22:17:16.713Z,2.53
2022-08-30T22:19:49.181Z,1.70
2022-08-30T22:22:21.007Z,1.65
2022-08-30T22:24:54.365Z,1.50
2022-08-30T22:27:25.927Z,1.50
2022-08-30T22:29:56.407Z,1.50
2022-08-30T22:32:26.758Z,1.25
2022-08-30T22:34:57.088Z,0.93
2022-08-30T22:37:36.870Z,0.80
2022-08-30T22:40:07.635Z,0.60
2022-08-30T22:42:38.744Z,0.70
2022-08-30T22:45:09.878Z,0.45
2022-08-30T22:47:40.553Z,0.45
2022-08-30T22:50:11.131Z,0.30
2022-08-30T22:52:42.867Z,0.20
2022-08-30T22:55:13.993Z,0.45
2022-08-30T22:57:44.626Z,0.30
2022-08-30T23:00:20.372Z,0.20
2022-08-30T23:02:54.068Z,0.40
2022-08-30T23:05:25.838Z,0.20
2022-08-30T23:07:56.482Z,0.20
2022-08-30T23:10:29.868Z,0.10
2022-08-30T23:13:01.426Z,0.20
2022-08-30T23:15:32.794Z,0.10
2022-08-30T23:18:03.119Z,0.10
2022-08-30T23:20:33.490Z,0.20
2022-08-30T23:23:03.765Z,0.15
2022-08-30T23:25:54.025Z,0.10
2022-08-30T23:28:42.186Z,0.10
2022-08-30T23:31:34.324Z,0.17
2022-08-30T23:34:24.158Z,0.15
2022-08-30T23:37:12.386Z,0.13
2022-08-30T23:40:00.451Z,0.10
2022-08-30T23:42:50.320Z,0.10
2022-08-30T23:45:38.633Z,0.10
2022-08-30T23:48:26.693Z,0.10
2022-08-30T23:51:21.937Z,0.10
2022-08-30T23:54:13.785Z,0.00
2022-08-30T23:57:02.192Z,0.10
2022-08-30T23:59:50.843Z,0.00
